createdAt,value
2022-11-13T00:01:27.938Z,8.90
2022-11-13T00:04:00.067Z,9.97
2022-11-13T00:06:28.804Z,10.13
2022-11-13T00:08:57.742Z,9.80
2022-11-13T00:11:26.483Z,7.23
2022-11-13T00:13:55.159Z,14.47
2022-11-13T00:16:24.063Z,10.13
2022-11-13T00:18:52.735Z,9.37
2022-11-13T00:21:25.666Z,8.33
2022-11-13T00:23:56.049Z,8.07
2022-11-13T00:26:26.723Z,9.40
2022-11-13T00:28:55.951Z,7.90
2022-11-13T00:31:24.560Z,9.33
2022-11-13T00:36:43.398Z,8.30
2022-11-13T00:39:12.511Z,7.83
2022-11-13T00:41:41.123Z,6.67
2022-11-13T00:44:09.738Z,7.37
2022-11-13T00:46:38.297Z,6.63
2022-11-13T00:49:06.902Z,7.30
2022-11-13T00:51:35.400Z,8.70
2022-11-13T00:54:05.937Z,8.00
2022-11-13T00:56:34.485Z,8.03
2022-11-13T00:59:02.974Z,11.87
2022-11-13T01:01:31.982Z,8.83
2022-11-13T01:04:00.614Z,8.73
2022-11-13T01:06:30.416Z,7.87
2022-11-13T01:09:00.844Z,5.93
2022-11-13T01:11:32.749Z,7.73
2022-11-13T01:14:01.618Z,7.23
2022-11-13T01:16:30.745Z,6.50
2022-11-13T01:18:59.600Z,6.37
2022-11-13T01:21:29.166Z,5.80
2022-11-13T01:23:57.960Z,6.40
2022-11-13T01:26:29.292Z,6.97
2022-11-13T01:29:00.854Z,6.40
2022-11-13T01:31:31.933Z,6.30
2022-11-13T01:34:01.006Z,5.60
2022-11-13T01:36:30.727Z,6.47
2022-11-13T01:38:59.385Z,5.40
2022-11-13T01:41:30.046Z,6.40
2022-11-13T01:44:01.453Z,5.60
2022-11-13T01:46:32.200Z,5.40
2022-11-13T01:49:10.856Z,5.23
2022-11-13T01:51:42.972Z,5.47
2022-11-13T01:54:15.856Z,7.57
2022-11-13T01:56:45.918Z,7.50
2022-11-13T01:59:18.743Z,7.70
2022-11-13T02:01:47.416Z,6.87
2022-11-13T02:04:15.971Z,8.87
2022-11-13T02:06:49.745Z,8.03
2022-11-13T02:09:21.827Z,8.57
2022-11-13T02:11:50.729Z,7.23
2022-11-13T02:14:23.178Z,8.10
2022-11-13T02:16:55.177Z,8.47
2022-11-13T02:19:29.193Z,7.13
2022-11-13T02:22:04.039Z,9.47
2022-11-13T02:24:37.841Z,6.27
2022-11-13T02:27:10.166Z,7.83
2022-11-13T02:29:38.787Z,5.90
2022-11-13T02:32:07.265Z,7.47
2022-11-13T02:34:36.157Z,7.07
2022-11-13T02:37:04.696Z,6.63
2022-11-13T02:39:34.651Z,5.97
2022-11-13T02:42:03.140Z,5.40
2022-11-13T02:44:31.970Z,5.43
2022-11-13T02:47:00.521Z,6.60
2022-11-13T02:49:29.118Z,7.90
2022-11-13T02:51:57.635Z,7.03
2022-11-13T02:54:26.485Z,8.07
2022-11-13T02:56:56.415Z,8.00
2022-11-13T02:59:27.948Z,7.83
2022-11-13T03:01:56.644Z,8.50
2022-11-13T03:04:28.969Z,6.73
2022-11-13T03:07:07.292Z,7.67
2022-11-13T03:09:36.055Z,6.33
2022-11-13T03:12:06.944Z,7.00
2022-11-13T03:14:35.423Z,8.83
2022-11-13T03:17:04.745Z,7.13
2022-11-13T03:19:33.287Z,6.43
2022-11-13T03:22:02.168Z,7.10
2022-11-13T03:24:31.245Z,7.33
2022-11-13T03:26:59.974Z,6.77
2022-11-13T03:29:29.914Z,6.10
2022-11-13T03:31:58.449Z,6.93
2022-11-13T03:34:27.590Z,6.60
2022-11-13T03:36:56.550Z,5.97
2022-11-13T03:39:25.693Z,6.33
2022-11-13T03:41:54.502Z,6.23
2022-11-13T03:44:23.130Z,7.57
2022-11-13T03:46:53.768Z,5.93
2022-11-13T03:49:22.945Z,6.63
2022-11-13T03:51:51.638Z,6.97
2022-11-13T03:54:20.422Z,6.90
2022-11-13T03:56:52.014Z,6.93
2022-11-13T03:59:20.568Z,6.67
2022-11-13T04:01:49.030Z,6.83
2022-11-13T04:04:19.463Z,6.70
2022-11-13T04:06:48.019Z,6.50
2022-11-13T04:09:16.624Z,6.87
2022-11-13T04:11:45.108Z,7.90
2022-11-13T04:14:14.068Z,6.93
2022-11-13T04:16:42.618Z,6.90
2022-11-13T04:19:11.254Z,6.67
2022-11-13T04:21:41.340Z,6.73
2022-11-13T04:24:10.066Z,6.60
2022-11-13T04:26:38.564Z,6.87
2022-11-13T04:29:07.581Z,6.63
2022-11-13T04:31:36.075Z,7.10
2022-11-13T04:34:04.535Z,6.93
2022-11-13T04:36:33.435Z,6.73
2022-11-13T04:39:03.820Z,6.83
2022-11-13T04:41:55.043Z,6.80
2022-11-13T04:44:23.949Z,6.70
2022-11-13T04:46:52.795Z,8.27
2022-11-13T04:49:21.269Z,7.73
2022-11-13T04:51:49.722Z,9.17
2022-11-13T04:54:22.059Z,7.53
2022-11-13T04:56:54.743Z,8.10
2022-11-13T04:59:23.304Z,7.13
2022-11-13T05:01:51.929Z,7.30
2022-11-13T05:04:21.196Z,8.67
2022-11-13T05:06:49.913Z,7.20
2022-11-13T05:09:19.991Z,7.90
2022-11-13T05:11:48.491Z,6.73
2022-11-13T05:14:17.540Z,7.33
2022-11-13T05:16:46.375Z,8.10
2022-11-13T05:19:14.963Z,7.70
2022-11-13T05:21:43.589Z,7.43
2022-11-13T05:24:13.241Z,7.70
2022-11-13T05:26:43.600Z,7.13
2022-11-13T05:29:12.059Z,7.10
2022-11-13T05:31:41.040Z,8.77
2022-11-13T05:34:09.760Z,8.77
2022-11-13T05:36:38.559Z,8.77
2022-11-13T05:39:07.141Z,8.30
2022-11-13T05:41:36.195Z,7.10
2022-11-13T05:44:06.344Z,7.50
2022-11-13T05:46:34.784Z,7.10
2022-11-13T05:49:04.148Z,7.43
2022-11-13T05:51:34.621Z,6.83
2022-11-13T05:54:03.516Z,6.17
2022-11-13T05:56:34.502Z,7.13
2022-11-13T05:59:03.820Z,5.40
2022-11-13T06:01:35.526Z,5.53
2022-11-13T06:04:05.043Z,6.10
2022-11-13T06:06:34.576Z,5.70
2022-11-13T06:09:05.464Z,6.73
2022-11-13T06:11:34.357Z,6.10
2022-11-13T06:14:03.373Z,7.87
2022-11-13T06:16:37.548Z,6.43
2022-11-13T06:19:10.319Z,7.07
2022-11-13T06:21:41.134Z,7.23
2022-11-13T06:24:12.618Z,6.83
2022-11-13T06:26:41.327Z,7.17
2022-11-13T06:29:12.227Z,6.60
2022-11-13T06:31:42.259Z,6.13
2022-11-13T06:34:11.121Z,7.93
2022-11-13T06:36:39.706Z,8.10
2022-11-13T06:39:09.169Z,8.87
2022-11-13T06:41:39.768Z,9.97
2022-11-13T06:44:08.329Z,11.40
2022-11-13T06:46:37.200Z,12.17
2022-11-13T06:49:07.695Z,12.40
2022-11-13T06:51:36.763Z,10.93
2022-11-13T06:54:05.413Z,9.90
2022-11-13T06:56:33.935Z,9.67
2022-11-13T06:59:07.631Z,9.10
2022-11-13T07:01:37.354Z,8.93
2022-11-13T07:04:08.097Z,8.80
2022-11-13T07:06:40.400Z,8.53
2022-11-13T07:09:10.362Z,10.17
2022-11-13T07:11:38.855Z,9.60
2022-11-13T07:14:07.678Z,9.73
2022-11-13T07:16:56.658Z,9.43
2022-11-13T07:19:26.332Z,10.83
2022-11-13T07:21:55.264Z,11.87
2022-11-13T07:24:23.767Z,10.63
2022-11-13T07:26:52.673Z,9.33
2022-11-13T07:29:21.309Z,10.67
2022-11-13T07:31:50.313Z,9.43
2022-11-13T07:34:19.008Z,10.03
2022-11-13T07:36:49.022Z,9.40
2022-11-13T07:39:17.515Z,7.93
2022-11-13T07:41:46.428Z,8.50
2022-11-13T07:44:27.152Z,9.70
2022-11-13T07:47:02.026Z,9.37
2022-11-13T07:49:31.170Z,9.17
2022-11-13T07:52:01.099Z,8.87
2022-11-13T07:54:29.582Z,8.90
2022-11-13T07:56:59.802Z,9.47
2022-11-13T07:59:28.837Z,9.53
2022-11-13T08:01:57.415Z,10.83
2022-11-13T08:04:27.612Z,9.53
2022-11-13T08:06:56.232Z,9.80
2022-11-13T08:09:27.182Z,10.67
2022-11-13T08:11:55.784Z,8.87
2022-11-13T08:14:24.311Z,9.60
2022-11-13T08:16:53.188Z,10.17
2022-11-13T08:19:21.762Z,10.07
2022-11-13T08:21:50.326Z,10.43
2022-11-13T08:24:19.023Z,12.43
2022-11-13T08:26:49.440Z,12.53
2022-11-13T08:29:17.947Z,13.50
2022-11-13T08:31:46.603Z,14.33
2022-11-13T08:34:16.144Z,16.17
2022-11-13T08:36:44.748Z,15.63
2022-11-13T08:39:13.542Z,19.60
2022-11-13T08:41:42.774Z,16.87
2022-11-13T08:44:14.452Z,16.27
2022-11-13T08:46:43.725Z,19.93
2022-11-13T08:49:12.527Z,18.50
2022-11-13T08:51:41.538Z,16.90
2022-11-13T08:54:10.223Z,14.93
2022-11-13T08:56:38.836Z,18.93
2022-11-13T08:59:08.004Z,15.67
2022-11-13T09:01:39.000Z,17.10
2022-11-13T09:04:07.878Z,19.17
2022-11-13T09:06:36.841Z,17.23
2022-11-13T09:09:07.979Z,15.77
2022-11-13T09:11:40.446Z,18.63
2022-11-13T09:14:09.139Z,19.50
2022-11-13T09:16:39.599Z,19.37
2022-11-13T09:19:09.571Z,18.97
2022-11-13T09:21:38.340Z,20.43
2022-11-13T09:24:08.118Z,20.43
2022-11-13T09:26:37.135Z,19.17
2022-11-13T09:29:10.326Z,19.87
2022-11-13T09:31:41.490Z,20.10
2022-11-13T09:34:13.368Z,18.47
2022-11-13T09:36:42.119Z,18.53
2022-11-13T09:39:10.732Z,19.03
2022-11-13T09:41:42.890Z,19.57
2022-11-13T09:44:18.230Z,17.33
2022-11-13T09:46:53.061Z,17.93
2022-11-13T09:49:27.791Z,16.30
2022-11-13T09:52:01.645Z,14.57
2022-11-13T09:54:34.993Z,14.17
2022-11-13T09:57:21.689Z,14.87
2022-11-13T09:59:58.413Z,13.73
2022-11-13T10:02:40.942Z,13.00
2022-11-13T10:05:23.092Z,12.60
2022-11-13T10:07:59.431Z,12.63
2022-11-13T10:10:55.183Z,12.40
2022-11-13T10:13:30.078Z,11.50
2022-11-13T10:16:06.193Z,10.90
2022-11-13T10:18:39.570Z,10.83
2022-11-13T10:21:19.453Z,10.33
2022-11-13T10:23:55.861Z,10.10
2022-11-13T10:26:26.450Z,9.30
2022-11-13T10:29:02.224Z,9.20
2022-11-13T10:31:34.074Z,8.53
2022-11-13T10:34:04.484Z,8.57
2022-11-13T10:36:39.392Z,8.30
2022-11-13T10:39:10.009Z,8.50
2022-11-13T10:41:49.697Z,8.30
2022-11-13T10:44:26.560Z,8.40
2022-11-13T10:47:06.903Z,7.90
2022-11-13T10:49:37.326Z,7.40
2022-11-13T10:52:16.866Z,7.50
2022-11-13T10:54:47.117Z,6.37
2022-11-13T10:57:35.081Z,7.00
2022-11-13T11:00:20.178Z,6.97
2022-11-13T11:02:51.246Z,6.90
2022-11-13T11:05:25.340Z,6.73
2022-11-13T11:07:55.916Z,5.63
2022-11-13T11:10:31.492Z,6.10
2022-11-13T11:13:04.284Z,5.00
2022-11-13T11:15:46.260Z,5.20
2022-11-13T11:18:25.910Z,5.27
2022-11-13T11:20:59.281Z,5.43
2022-11-13T11:23:36.771Z,5.60
2022-11-13T11:26:12.881Z,5.83
2022-11-13T11:28:48.111Z,5.07
2022-11-13T11:31:26.970Z,5.47
2022-11-13T11:34:01.146Z,5.13
2022-11-13T11:36:34.832Z,5.50
2022-11-13T11:39:16.831Z,5.90
2022-11-13T11:41:51.731Z,5.70
2022-11-13T11:44:28.553Z,6.23
2022-11-13T11:46:57.500Z,5.90
2022-11-13T11:49:28.366Z,5.30
2022-11-13T11:52:10.594Z,5.40
2022-11-13T11:54:43.859Z,5.77
2022-11-13T11:57:29.565Z,5.93
2022-11-13T12:00:06.312Z,5.30
2022-11-13T12:03:08.721Z,5.40
2022-11-13T12:05:46.449Z,5.50
2022-11-13T12:08:32.720Z,5.37
2022-11-13T12:11:16.519Z,5.40
2022-11-13T12:13:52.925Z,6.00
2022-11-13T12:16:29.309Z,5.53
2022-11-13T12:19:06.833Z,5.53
2022-11-13T12:21:48.693Z,5.90
2022-11-13T12:24:43.124Z,6.03
2022-11-13T12:27:21.768Z,5.80
2022-11-13T12:30:09.168Z,5.70
2022-11-13T12:33:03.946Z,5.63
2022-11-13T12:35:32.805Z,5.63
2022-11-13T12:38:07.374Z,5.77
2022-11-13T12:40:44.830Z,4.70
2022-11-13T12:43:45.177Z,5.07
2022-11-13T12:46:14.620Z,4.67
2022-11-13T12:48:46.930Z,5.13
2022-11-13T12:51:17.509Z,4.90
2022-11-13T12:53:51.040Z,4.97
2022-11-13T12:56:33.932Z,4.73
2022-11-13T13:02:01.202Z,4.30
2022-11-13T13:04:48.498Z,4.37
2022-11-13T13:07:45.164Z,5.00
2022-11-13T13:10:25.680Z,4.10
2022-11-13T13:13:03.247Z,4.27
2022-11-13T13:15:35.228Z,4.13
2022-11-13T13:18:11.749Z,5.00
2022-11-13T13:20:43.258Z,4.53
2022-11-13T13:23:15.199Z,4.43
2022-11-13T13:25:44.143Z,4.30
2022-11-13T13:28:24.547Z,4.67
2022-11-13T13:31:01.473Z,4.63
2022-11-13T13:33:42.464Z,4.10
2022-11-13T13:36:23.535Z,4.27
2022-11-13T13:38:59.269Z,4.47
2022-11-13T13:41:41.273Z,3.83
2022-11-13T13:44:40.546Z,3.93
2022-11-13T13:47:18.005Z,3.90
2022-11-13T13:49:47.624Z,4.20
2022-11-13T13:52:18.004Z,3.70
2022-11-13T13:54:47.713Z,4.07
2022-11-13T13:57:21.107Z,3.57
2022-11-13T13:59:52.708Z,3.40
2022-11-13T14:02:23.820Z,3.50
2022-11-13T14:04:55.680Z,3.50
2022-11-13T14:07:28.104Z,3.60
2022-11-13T14:10:18.891Z,3.40
2022-11-13T14:12:48.628Z,3.43
2022-11-13T14:15:29.636Z,3.20
2022-11-13T14:18:10.082Z,3.60
2022-11-13T14:20:50.090Z,3.10
2022-11-13T14:23:23.783Z,3.00
2022-11-13T14:25:54.262Z,3.20
2022-11-13T14:28:25.268Z,3.30
2022-11-13T14:31:04.775Z,3.07
2022-11-13T14:33:39.872Z,2.90
2022-11-13T14:36:09.540Z,3.30
2022-11-13T14:38:47.661Z,2.90
2022-11-13T14:41:24.018Z,2.97
2022-11-13T14:43:54.522Z,3.10
2022-11-13T14:46:35.595Z,3.60
2022-11-13T14:49:04.438Z,2.97
2022-11-13T14:51:35.326Z,3.10
2022-11-13T14:54:09.165Z,2.67
2022-11-13T14:56:43.326Z,2.63
2022-11-13T14:59:19.598Z,2.50
2022-11-13T15:01:58.289Z,2.60
2022-11-13T15:04:28.688Z,2.80
2022-11-13T15:07:01.378Z,2.67
2022-11-13T15:09:32.817Z,2.87
2022-11-13T15:12:01.769Z,2.90
2022-11-13T15:14:30.595Z,2.90
2022-11-13T15:17:01.632Z,3.13
2022-11-13T15:19:35.310Z,3.33
2022-11-13T15:24:53.467Z,3.40
2022-11-13T15:27:23.630Z,3.07
2022-11-13T15:29:52.470Z,3.00
2022-11-13T15:32:24.146Z,3.00
2022-11-13T15:34:53.152Z,3.50
2022-11-13T15:37:22.394Z,2.93
2022-11-13T15:39:53.366Z,3.63
2022-11-13T15:42:28.642Z,3.50
2022-11-13T15:44:57.960Z,3.30
2022-11-13T15:47:35.027Z,3.37
2022-11-13T15:50:14.920Z,4.17
2022-11-13T15:52:47.359Z,6.70
2022-11-13T15:55:28.718Z,6.57
2022-11-13T15:57:57.770Z,6.87
2022-11-13T16:00:28.355Z,7.77
2022-11-13T16:02:59.419Z,9.37
2022-11-13T16:05:32.201Z,10.80
2022-11-13T16:08:00.980Z,11.03
2022-11-13T16:10:30.188Z,11.10
2022-11-13T16:13:02.032Z,10.53
2022-11-13T16:15:31.532Z,7.20
2022-11-13T16:18:06.404Z,7.47
2022-11-13T16:20:35.521Z,5.93
2022-11-13T16:23:06.001Z,5.30
2022-11-13T16:25:35.061Z,4.50
2022-11-13T16:28:04.052Z,5.00
2022-11-13T16:30:32.938Z,3.90
2022-11-13T16:33:06.234Z,61.63
2022-11-13T16:35:35.394Z,3.87
2022-11-13T16:38:05.204Z,3.57
2022-11-13T16:40:36.254Z,3.87
2022-11-13T16:43:05.448Z,3.37
2022-11-13T16:45:34.429Z,3.40
2022-11-13T16:48:05.056Z,3.17
2022-11-13T16:50:37.126Z,3.40
2022-11-13T16:53:06.030Z,2.90
2022-11-13T16:55:36.930Z,2.97
2022-11-13T16:58:06.615Z,3.30
2022-11-13T17:00:36.211Z,3.00
2022-11-13T17:03:07.023Z,2.87
2022-11-13T17:05:36.394Z,3.50
2022-11-13T17:08:08.051Z,3.10
2022-11-13T17:10:36.990Z,3.50
2022-11-13T17:13:06.753Z,3.10
2022-11-13T17:15:35.637Z,3.10
2022-11-13T17:18:06.031Z,3.63
2022-11-13T17:20:38.167Z,3.33
2022-11-13T17:23:06.911Z,3.60
2022-11-13T17:25:36.094Z,3.50
2022-11-13T17:28:05.268Z,3.33
2022-11-13T17:30:33.930Z,4.00
2022-11-13T17:33:02.722Z,4.43
2022-11-13T17:35:35.381Z,4.80
2022-11-13T17:38:04.066Z,4.50
2022-11-13T17:40:35.875Z,4.40
2022-11-13T17:43:04.636Z,5.13
2022-11-13T17:45:33.753Z,4.87
2022-11-13T17:48:02.929Z,4.53
2022-11-13T17:50:35.309Z,4.53
2022-11-13T17:53:07.905Z,4.07
2022-11-13T17:55:36.968Z,3.93
2022-11-13T17:58:10.545Z,3.60
2022-11-13T18:00:39.482Z,3.70
2022-11-13T18:03:08.348Z,4.10
2022-11-13T18:05:40.821Z,4.50
2022-11-13T18:08:11.835Z,5.40
2022-11-13T18:10:42.292Z,5.87
2022-11-13T18:13:11.372Z,5.90
2022-11-13T18:15:45.292Z,5.37
2022-11-13T18:18:14.892Z,5.53
2022-11-13T18:20:46.142Z,5.37
2022-11-13T18:23:15.053Z,5.60
2022-11-13T18:25:43.959Z,5.60
2022-11-13T18:28:14.405Z,5.80
2022-11-13T18:30:46.340Z,6.00
2022-11-13T18:33:18.399Z,5.60
2022-11-13T18:35:50.904Z,5.40
2022-11-13T18:38:23.292Z,4.87
2022-11-13T18:40:54.108Z,4.67
2022-11-13T18:43:27.670Z,5.10
2022-11-13T18:46:02.132Z,5.13
2022-11-13T18:48:36.194Z,5.83
2022-11-13T18:51:12.307Z,8.53
2022-11-13T18:53:41.168Z,9.10
2022-11-13T18:56:16.822Z,9.57
2022-11-13T18:58:49.768Z,10.00
2022-11-13T19:01:22.821Z,10.70
2022-11-13T19:04:21.136Z,12.10
2022-11-13T19:06:43.641Z,12.73
2022-11-13T19:09:15.408Z,12.60
2022-11-13T19:11:44.677Z,12.87
2022-11-13T19:14:15.897Z,14.27
2022-11-13T19:16:44.971Z,14.77
2022-11-13T19:19:18.043Z,13.90
2022-11-13T19:21:50.424Z,13.43
2022-11-13T19:24:19.971Z,14.77
2022-11-13T19:26:49.037Z,14.47
2022-11-13T19:29:17.882Z,13.30
2022-11-13T19:31:50.457Z,11.40
2022-11-13T19:34:19.576Z,10.00
2022-11-13T19:36:51.678Z,9.17
2022-11-13T19:39:20.950Z,8.97
2022-11-13T19:41:49.953Z,8.20
2022-11-13T19:44:20.076Z,8.07
2022-11-13T19:46:51.061Z,8.70
2022-11-13T19:49:21.719Z,8.40
2022-11-13T19:51:52.442Z,7.60
2022-11-13T19:54:21.499Z,6.60
2022-11-13T19:56:50.672Z,6.00
2022-11-13T19:59:19.686Z,8.70
2022-11-13T20:01:48.910Z,7.00
2022-11-13T20:04:18.197Z,5.53
2022-11-13T20:06:47.155Z,6.50
2022-11-13T20:09:17.611Z,6.10
2022-11-13T20:11:46.381Z,6.97
2022-11-13T20:14:18.316Z,7.60
2022-11-13T20:16:47.198Z,7.30
2022-11-13T20:19:17.750Z,8.00
2022-11-13T20:21:46.507Z,6.40
2022-11-13T20:24:16.803Z,9.77
2022-11-13T20:26:45.703Z,10.60
2022-11-13T20:29:14.955Z,11.00
2022-11-13T20:31:43.963Z,9.40
2022-11-13T20:34:13.067Z,8.87
2022-11-13T20:36:42.579Z,8.47
2022-11-13T20:39:12.087Z,7.90
2022-11-13T20:41:42.351Z,5.87
2022-11-13T20:44:12.520Z,6.97
2022-11-13T20:46:41.906Z,5.73
2022-11-13T20:49:10.710Z,5.73
2022-11-13T20:51:39.674Z,6.63
2022-11-13T20:54:08.531Z,6.33
2022-11-13T20:56:37.999Z,5.03
2022-11-13T20:59:08.786Z,5.00
2022-11-13T21:01:37.694Z,6.70
2022-11-13T21:04:06.905Z,6.70
2022-11-13T21:06:35.983Z,6.63
2022-11-13T21:09:05.756Z,7.03
2022-11-13T21:11:35.633Z,7.97
2022-11-13T21:14:04.583Z,8.30
2022-11-13T21:16:35.006Z,7.50
2022-11-13T21:19:04.506Z,7.47
2022-11-13T21:21:37.281Z,7.40
2022-11-13T21:24:07.109Z,11.63
2022-11-13T21:26:36.325Z,8.57
2022-11-13T21:29:05.419Z,8.57
2022-11-13T21:31:35.756Z,9.83
2022-11-13T21:34:04.580Z,9.23
2022-11-13T21:36:33.401Z,10.37
2022-11-13T21:39:02.290Z,9.73
2022-11-13T21:41:31.284Z,11.17
2022-11-13T21:44:02.280Z,13.33
2022-11-13T21:46:32.591Z,11.97
2022-11-13T21:49:04.267Z,12.90
2022-11-13T21:51:36.701Z,12.07
2022-11-13T21:54:06.399Z,13.00
2022-11-13T21:56:37.708Z,11.77
2022-11-13T21:59:06.879Z,11.70
2022-11-13T22:01:38.528Z,11.33
2022-11-13T22:04:09.159Z,11.40
2022-11-13T22:06:39.794Z,9.50
2022-11-13T22:09:14.170Z,13.80
2022-11-13T22:11:43.277Z,8.97
2022-11-13T22:14:12.735Z,12.30
2022-11-13T22:16:43.942Z,13.33
2022-11-13T22:19:15.968Z,13.13
2022-11-13T22:21:45.735Z,9.20
2022-11-13T22:24:15.565Z,10.30
2022-11-13T22:26:47.147Z,14.23
2022-11-13T22:29:16.439Z,15.90
2022-11-13T22:31:46.874Z,15.83
2022-11-13T22:34:17.251Z,11.73
2022-11-13T22:36:51.005Z,18.80
2022-11-13T22:39:19.748Z,13.37
2022-11-13T22:41:49.017Z,18.40
2022-11-13T22:44:17.974Z,19.17
2022-11-13T22:46:47.407Z,19.47
2022-11-13T22:49:17.687Z,14.37
2022-11-13T22:51:46.495Z,19.80
2022-11-13T22:54:15.175Z,16.27
2022-11-13T22:56:43.805Z,18.40
2022-11-13T22:59:13.867Z,23.77
2022-11-13T23:01:44.353Z,16.47
2022-11-13T23:04:14.633Z,13.47
2022-11-13T23:06:44.775Z,20.70
2022-11-13T23:09:13.515Z,19.27
2022-11-13T23:11:44.165Z,14.53
2022-11-13T23:14:15.995Z,19.87
2022-11-13T23:16:44.861Z,21.10
2022-11-13T23:19:13.728Z,16.10
2022-11-13T23:21:46.241Z,16.33
2022-11-13T23:24:15.161Z,15.67
2022-11-13T23:26:44.135Z,13.10
2022-11-13T23:29:13.091Z,14.80
2022-11-13T23:31:41.789Z,16.77
2022-11-13T23:34:10.380Z,18.73
2022-11-13T23:36:39.114Z,17.63
2022-11-13T23:39:09.503Z,17.37
2022-11-13T23:41:38.534Z,16.93
2022-11-13T23:44:09.347Z,17.93
2022-11-13T23:46:38.430Z,17.20
2022-11-13T23:49:07.053Z,16.87
2022-11-13T23:51:36.123Z,16.13
2022-11-13T23:54:04.761Z,16.67
2022-11-13T23:56:34.876Z,23.50
2022-11-13T23:59:03.475Z,17.47
